메인 페이지
METAR-TAF:

METAR-TAF

공항 :

벨파스트, 북아일랜드

위도: 54-39N, 경도: 006-13W, 고도: 81m

현재 날씨관측

예보는 35분 전, 12:20시(UTC)에 발표되었습니다.
10kt남남동풍과 남남서풍을 오가는
온도 17°C
습도 82%
기압 1014 hPa
시정 10km 이상
고도 1600ft 상공 구름 많음
고도 2900ft 상공 구름 많음

METAR: EGAA 241220Z AUTO 18010KT 150V210 9999 BKN016 BKN029 17/14 Q1014

시각: 13:55 (12:55 UTC)

예보

예보는 1 시간 58분 전, 10:57시(UTC)에 발표되었습니다.
예보 대상 시간: 24일 12시부터 25일 12시까지 (UTC)
10kt
시정 10km 이상
고도 2000ft 상공 구름 많음
일시적
24일 12시부터 24일 14시까지 (UTC)
시정: 7000m
고도 1200ft 상공 구름 많음
전환 중
24일 14시부터 24일 16시까지 (UTC)
고도 1200ft 상공 구름 많음
확률 40% :
일시적
24일 14시부터 24일 20시까지 (UTC)
시정: 4000m
고도 800ft 상공 구름 많음
비, 이슬비
전환 중
24일 20시부터 24일 23시까지 (UTC)
서남서10kt
고도 3000ft 상공 구름 많음
확률 40% :
일시적
24일 23시부터 25일 09시까지 (UTC)
고도 1200ft 상공 구름 많음

TAF: EGAA 241057Z 2412/2512 18010KT 9999 BKN020 TEMPO 2412/2414 7000 RA BKN012 BECMG 2414/2416 BKN012 PROB40 TEMPO 2414/2420 4000 RADZ BKN008 BECMG 2420/2423 24010KT BKN030 PROB40 TEMPO 2423/2509 BKN012

4,000개 이상의 공항 관측 자료 및 예보 (METAR 및 TAF 보고).

지도상에서 검색 가능한 기상관측소가 노란 점과 빨간 점으로 표시되어 있습니다.

기상관측소 명을 보려면 표시 위로 마우스를 이동하세요.

날씨 관측과 예보를 보려면 클릭하세요.

지도 변경 : 확대하려면 엑스 표시가 있는 녹색 버튼, 축소하려면 빼기 표시가 있는 녹색 버튼, 다음 페이지의 지도를 보려면 녹색 화살표를 클릭하세요.


METAR-TAF: